createdAt,value
2022-09-01T00:01:50.142Z,37.69
2022-09-01T00:04:27.370Z,38.18
2022-09-01T00:06:55.267Z,37.72
2022-09-01T00:09:23.216Z,38.09
2022-09-01T00:11:53.009Z,38.06
2022-09-01T00:14:30.610Z,38.54
2022-09-01T00:17:03.090Z,38.41
2022-09-01T00:19:30.476Z,38.55
2022-09-01T00:21:57.480Z,38.43
2022-09-01T00:24:26.332Z,38.90
2022-09-01T00:26:54.828Z,38.69
2022-09-01T00:29:21.930Z,38.64
2022-09-01T00:31:49.038Z,38.94
2022-09-01T00:34:15.985Z,39.34
2022-09-01T00:36:44.219Z,39.03
2022-09-01T00:39:10.897Z,39.06
2022-09-01T00:41:39.755Z,39.45
2022-09-01T00:44:14.282Z,39.56
2022-09-01T00:46:49.901Z,39.33
2022-09-01T00:49:31.452Z,39.47
2022-09-01T00:52:06.907Z,39.41
2022-09-01T00:54:43.693Z,39.57
2022-09-01T00:57:13.157Z,39.60
2022-09-01T01:00:01.866Z,39.94
2022-09-01T01:02:28.561Z,39.71
2022-09-01T01:04:59.551Z,40.12
2022-09-01T01:07:27.319Z,39.69
2022-09-01T01:09:54.326Z,40.25
2022-09-01T01:12:21.237Z,39.90
2022-09-01T01:14:50.584Z,39.84
2022-09-01T01:17:22.589Z,40.22
2022-09-01T01:20:11.760Z,40.27
2022-09-01T01:22:57.659Z,40.30
2022-09-01T01:25:26.201Z,40.30
2022-09-01T01:27:52.888Z,40.38
2022-09-01T01:30:20.782Z,40.41
2022-09-01T01:32:47.865Z,40.33
2022-09-01T01:35:16.865Z,40.95
2022-09-01T01:37:48.872Z,40.59
2022-09-01T01:40:22.037Z,40.53
2022-09-01T01:42:52.002Z,40.87
2022-09-01T01:45:21.778Z,40.75
2022-09-01T01:47:53.075Z,41.09
2022-09-01T01:50:27.850Z,40.83
2022-09-01T01:52:59.973Z,41.12
2022-09-01T01:55:28.998Z,41.13
2022-09-01T01:57:59.103Z,41.03
2022-09-01T02:00:32.271Z,41.42
2022-09-01T02:02:59.545Z,41.45
2022-09-01T02:05:29.897Z,41.60
2022-09-01T02:07:59.956Z,41.45
2022-09-01T02:10:33.305Z,41.74
2022-09-01T02:13:07.028Z,41.65
2022-09-01T02:15:44.223Z,41.48
2022-09-01T02:18:14.307Z,41.57
2022-09-01T02:20:41.933Z,41.75
2022-09-01T02:23:20.232Z,41.59
2022-09-01T02:26:14.031Z,41.79
2022-09-01T02:28:37.098Z,41.74
2022-09-01T02:31:05.050Z,41.81
2022-09-01T02:33:33.213Z,41.85
2022-09-01T02:36:05.521Z,42.01
2022-09-01T02:38:33.730Z,42.04
2022-09-01T02:41:04.032Z,42.07
2022-09-01T02:43:56.934Z,42.16
2022-09-01T02:46:24.536Z,42.15
2022-09-01T02:48:53.210Z,42.19
2022-09-01T02:51:22.576Z,42.12
2022-09-01T02:53:52.953Z,41.96
2022-09-01T02:56:25.896Z,42.45
2022-09-01T02:58:54.813Z,42.15
2022-09-01T03:01:30.145Z,42.22
2022-09-01T03:04:05.656Z,42.52
2022-09-01T03:06:34.722Z,42.49
2022-09-01T03:09:04.357Z,42.60
2022-09-01T03:11:35.007Z,42.40
2022-09-01T03:14:08.480Z,42.77
2022-09-01T03:16:37.216Z,42.53
2022-09-01T03:19:07.555Z,43.00
2022-09-01T03:21:34.948Z,42.78
2022-09-01T03:24:05.969Z,42.67
2022-09-01T03:26:32.915Z,43.19
2022-09-01T03:28:59.520Z,42.97
2022-09-01T03:31:31.402Z,42.75
2022-09-01T03:34:03.576Z,42.84
2022-09-01T03:36:34.178Z,42.85
2022-09-01T03:39:01.211Z,42.97
2022-09-01T03:41:30.921Z,43.04
2022-09-01T03:43:58.845Z,43.18
2022-09-01T03:46:36.893Z,43.28
2022-09-01T03:49:07.642Z,43.04
2022-09-01T03:51:38.002Z,43.09
2022-09-01T03:54:07.310Z,42.88
2022-09-01T03:56:34.136Z,43.23
2022-09-01T03:59:00.848Z,42.93
2022-09-01T04:01:38.080Z,43.20
2022-09-01T04:04:13.786Z,43.16
2022-09-01T04:06:42.528Z,43.04
2022-09-01T04:09:10.849Z,43.08
2022-09-01T04:11:42.539Z,42.93
2022-09-01T04:14:17.181Z,43.17
2022-09-01T04:17:03.874Z,42.94
2022-09-01T04:19:36.946Z,43.30
2022-09-01T04:22:05.123Z,42.92
2022-09-01T04:24:45.411Z,42.95
2022-09-01T04:27:13.807Z,43.13
2022-09-01T04:29:41.808Z,43.28
2022-09-01T04:32:12.864Z,42.97
2022-09-01T04:34:43.559Z,43.42
2022-09-01T04:37:19.501Z,43.18
2022-09-01T04:39:57.129Z,43.36
2022-09-01T04:42:29.079Z,43.20
2022-09-01T04:45:02.097Z,43.28
2022-09-01T04:47:42.286Z,43.33
2022-09-01T04:50:15.016Z,43.14
2022-09-01T04:52:47.779Z,43.28
2022-09-01T04:55:29.885Z,43.09
2022-09-01T04:58:01.748Z,43.00
2022-09-01T05:00:32.320Z,43.35
2022-09-01T05:03:04.853Z,43.38
2022-09-01T05:05:55.108Z,43.33
2022-09-01T05:08:24.292Z,43.55
2022-09-01T05:10:55.706Z,43.34
2022-09-01T05:13:49.944Z,43.58
2022-09-01T05:16:25.087Z,43.04
2022-09-01T05:18:57.271Z,43.28
2022-09-01T05:21:28.300Z,43.08
2022-09-01T05:24:01.458Z,43.14
2022-09-01T05:26:31.083Z,43.27
2022-09-01T05:29:00.598Z,43.51
2022-09-01T05:31:34.852Z,43.19
2022-09-01T05:34:04.189Z,43.41
2022-09-01T05:36:33.518Z,43.19
2022-09-01T05:39:01.818Z,43.29
2022-09-01T05:41:28.934Z,43.07
2022-09-01T05:44:00.582Z,43.03
2022-09-01T05:46:28.680Z,43.07
2022-09-01T05:48:58.556Z,43.53
2022-09-01T05:51:44.009Z,43.17
2022-09-01T05:54:14.353Z,43.18
2022-09-01T05:56:44.268Z,43.55
2022-09-01T05:59:23.616Z,43.22
2022-09-01T06:01:54.202Z,43.19
2022-09-01T06:04:24.691Z,43.19
2022-09-01T06:07:10.247Z,43.40
2022-09-01T06:09:43.663Z,43.52
2022-09-01T06:12:18.526Z,43.34
2022-09-01T06:14:48.581Z,43.40
2022-09-01T06:17:24.937Z,43.19
2022-09-01T06:19:55.679Z,43.53
2022-09-01T06:22:24.258Z,43.41
2022-09-01T06:24:57.965Z,43.82
2022-09-01T06:27:29.934Z,43.66
2022-09-01T06:29:58.290Z,43.50
2022-09-01T06:32:27.012Z,43.78
2022-09-01T06:34:57.970Z,43.48
2022-09-01T06:37:25.244Z,43.38
2022-09-01T06:39:55.322Z,43.49
2022-09-01T06:42:23.513Z,43.50
2022-09-01T06:45:00.028Z,43.35
2022-09-01T06:47:28.646Z,43.25
2022-09-01T06:49:59.425Z,43.36
2022-09-01T06:52:27.913Z,43.15
2022-09-01T06:55:03.376Z,42.63
2022-09-01T07:00:20.912Z,42.26
2022-09-01T07:02:54.787Z,42.50
2022-09-01T07:06:02.215Z,42.02
2022-09-01T07:14:25.946Z,41.30
2022-09-01T07:17:22.349Z,41.06
2022-09-01T07:19:54.631Z,41.17
2022-09-01T07:23:02.622Z,40.66
2022-09-01T07:25:12.835Z,40.36
2022-09-01T07:28:06.642Z,40.00
2022-09-01T07:30:34.726Z,40.09
2022-09-01T07:39:48.651Z,39.43
2022-09-01T07:44:40.077Z,38.90
2022-09-01T07:53:04.601Z,38.75
2022-09-01T07:55:34.799Z,38.62
2022-09-01T07:58:01.975Z,38.55
2022-09-01T08:00:31.843Z,37.99
2022-09-01T08:03:03.144Z,38.62
2022-09-01T08:05:31.897Z,38.13
2022-09-01T08:07:58.456Z,37.89
2022-09-01T08:10:31.094Z,37.56
2022-09-01T08:12:57.730Z,37.41
2022-09-01T08:18:17.685Z,37.06
2022-09-01T08:20:45.768Z,36.95
2022-09-01T08:23:43.266Z,36.56
2022-09-01T08:26:16.444Z,36.12
2022-09-01T08:28:47.341Z,36.45
2022-09-01T08:31:30.617Z,36.05
2022-09-01T08:34:00.004Z,35.68
2022-09-01T08:36:27.029Z,35.47
2022-09-01T08:38:54.248Z,35.40
2022-09-01T08:41:47.132Z,35.24
2022-09-01T08:44:37.978Z,35.39
2022-09-01T08:47:08.613Z,35.18
2022-09-01T08:49:45.975Z,34.66
2022-09-01T08:52:25.484Z,34.43
2022-09-01T08:55:03.954Z,34.20
2022-09-01T08:57:39.998Z,33.80
2022-09-01T09:00:23.304Z,33.66
2022-09-01T09:03:40.494Z,33.13
2022-09-01T09:06:25.776Z,32.83
2022-09-01T09:09:01.093Z,32.35
2022-09-01T09:11:40.425Z,32.08
2022-09-01T09:14:23.546Z,32.01
2022-09-01T09:16:55.011Z,31.76
2022-09-01T09:19:40.739Z,31.66
2022-09-01T09:22:11.289Z,31.73
2022-09-01T09:24:52.948Z,31.31
2022-09-01T09:27:19.882Z,31.51
2022-09-01T09:29:48.533Z,31.43
2022-09-01T09:32:51.669Z,31.05
2022-09-01T09:35:30.421Z,30.67
2022-09-01T09:38:21.089Z,30.17
2022-09-01T09:41:25.599Z,30.19
2022-09-01T09:44:11.993Z,29.91
2022-09-01T09:46:40.148Z,30.04
2022-09-01T09:49:34.252Z,30.05
2022-09-01T09:52:03.188Z,29.47
2022-09-01T09:54:36.150Z,29.32
2022-09-01T09:57:08.728Z,29.20
2022-09-01T10:00:03.283Z,28.91
2022-09-01T10:02:45.946Z,29.20
2022-09-01T10:05:37.137Z,28.80
2022-09-01T10:08:06.646Z,28.65
2022-09-01T10:10:56.465Z,28.10
2022-09-01T10:13:27.581Z,28.01
2022-09-01T10:15:56.997Z,27.62
2022-09-01T10:18:38.287Z,27.53
2022-09-01T10:21:12.265Z,27.30
2022-09-01T10:23:43.170Z,27.30
2022-09-01T10:26:37.642Z,26.65
2022-09-01T10:29:35.209Z,26.47
2022-09-01T10:32:34.626Z,25.98
2022-09-01T10:35:01.552Z,26.21
2022-09-01T10:37:29.715Z,25.67
2022-09-01T10:40:11.745Z,25.08
2022-09-01T10:42:45.347Z,24.83
2022-09-01T10:45:32.397Z,24.52
2022-09-01T10:48:30.474Z,24.34
2022-09-01T10:51:36.353Z,24.44
2022-09-01T10:54:30.045Z,24.32
2022-09-01T10:57:03.861Z,23.68
2022-09-01T10:59:43.291Z,23.58
2022-09-01T11:02:25.903Z,23.56
2022-09-01T11:04:59.176Z,23.39
2022-09-01T11:07:58.273Z,23.14
2022-09-01T11:10:32.741Z,23.63
2022-09-01T11:13:06.105Z,23.28
2022-09-01T11:15:35.948Z,23.25
2022-09-01T11:18:07.682Z,22.99
2022-09-01T11:20:42.723Z,22.60
2022-09-01T11:23:34.390Z,22.51
2022-09-01T11:26:32.590Z,22.17
2022-09-01T11:28:59.440Z,21.93
2022-09-01T11:31:30.642Z,21.49
2022-09-01T11:34:10.347Z,21.51
2022-09-01T11:36:49.745Z,21.47
2022-09-01T11:39:20.885Z,21.22
2022-09-01T11:41:54.481Z,21.24
2022-09-01T11:44:42.583Z,21.01
2022-09-01T11:47:27.145Z,20.79
2022-09-01T11:50:16.883Z,20.89
2022-09-01T11:52:53.758Z,20.35
2022-09-01T11:55:32.586Z,20.24
2022-09-01T11:57:59.586Z,20.63
2022-09-01T12:00:38.292Z,20.12
2022-09-01T12:03:25.850Z,20.06
2022-09-01T12:05:59.373Z,20.43
2022-09-01T12:08:30.451Z,20.53
2022-09-01T12:11:09.715Z,20.62
2022-09-01T12:13:41.130Z,20.47
2022-09-01T12:16:19.216Z,20.46
2022-09-01T12:18:51.135Z,20.03
2022-09-01T12:21:42.480Z,19.99
2022-09-01T12:24:23.899Z,20.18
2022-09-01T12:26:57.698Z,19.82
2022-09-01T12:29:27.754Z,20.17
2022-09-01T12:31:56.843Z,19.95
2022-09-01T12:34:39.824Z,19.95
2022-09-01T12:37:27.337Z,19.69
2022-09-01T12:39:57.510Z,19.54
2022-09-01T12:42:28.370Z,19.92
2022-09-01T12:44:57.999Z,19.61
2022-09-01T12:47:33.547Z,19.06
2022-09-01T12:50:03.461Z,19.16
2022-09-01T12:52:32.763Z,18.58
2022-09-01T12:54:59.652Z,18.89
2022-09-01T12:57:30.201Z,18.80
2022-09-01T13:00:12.304Z,19.10
2022-09-01T13:02:46.017Z,18.75
2022-09-01T13:05:42.816Z,19.14
2022-09-01T13:08:12.618Z,19.43
2022-09-01T13:10:51.776Z,19.01
2022-09-01T13:13:25.166Z,19.09
2022-09-01T13:15:54.954Z,18.62
2022-09-01T13:18:23.945Z,18.79
2022-09-01T13:20:53.146Z,18.72
2022-09-01T13:23:24.566Z,18.92
2022-09-01T13:25:51.524Z,19.05
2022-09-01T13:28:18.623Z,18.87
2022-09-01T13:31:28.601Z,18.82
2022-09-01T13:36:46.309Z,18.72
2022-09-01T13:39:15.495Z,18.81
2022-09-01T13:41:42.385Z,18.88
2022-09-01T13:44:10.462Z,18.84
2022-09-01T13:46:59.008Z,18.87
2022-09-01T13:52:13.025Z,18.80
2022-09-01T13:54:45.972Z,18.98
2022-09-01T13:57:14.939Z,19.06
2022-09-01T13:59:41.838Z,18.95
2022-09-01T14:02:08.452Z,18.82
2022-09-01T14:04:39.325Z,18.48
2022-09-01T14:07:06.119Z,18.74
2022-09-01T14:09:33.202Z,18.76
2022-09-01T14:11:59.811Z,18.83
2022-09-01T14:17:16.853Z,18.60
2022-09-01T14:19:44.135Z,18.68
2022-09-01T14:22:10.678Z,18.99
2022-09-01T14:24:40.420Z,18.85
2022-09-01T14:27:07.589Z,18.92
2022-09-01T14:29:34.179Z,18.79
2022-09-01T14:32:00.901Z,18.55
2022-09-01T14:34:27.442Z,18.58
2022-09-01T14:36:56.508Z,18.67
2022-09-01T14:39:23.900Z,18.77
2022-09-01T14:41:50.683Z,18.67
2022-09-01T14:44:18.258Z,18.78
2022-09-01T14:46:47.150Z,18.89
2022-09-01T14:49:19.017Z,18.92
2022-09-01T14:54:38.772Z,18.83
2022-09-01T14:59:52.981Z,18.56
2022-09-01T15:02:19.827Z,19.09
2022-09-01T15:04:47.689Z,19.02
2022-09-01T15:07:15.249Z,19.16
2022-09-01T15:09:42.475Z,19.09
2022-09-01T15:12:09.530Z,19.14
2022-09-01T15:14:38.760Z,19.08
2022-09-01T15:17:06.113Z,19.02
2022-09-01T15:19:32.675Z,19.17
2022-09-01T15:21:59.498Z,18.94
2022-09-01T15:24:26.023Z,19.27
2022-09-01T15:26:52.593Z,19.34
2022-09-01T15:29:19.186Z,19.28
2022-09-01T15:31:45.978Z,19.40
2022-09-01T15:34:13.793Z,19.10
2022-09-01T15:36:41.510Z,19.34
2022-09-01T15:39:10.195Z,19.42
2022-09-01T15:41:37.082Z,19.45
2022-09-01T15:44:08.309Z,19.78
2022-09-01T15:46:38.897Z,19.71
2022-09-01T15:49:08.701Z,20.17
2022-09-01T15:51:37.916Z,20.10
2022-09-01T15:54:15.146Z,20.36
2022-09-01T15:56:42.970Z,20.30
2022-09-01T15:59:10.650Z,20.40
2022-09-01T16:01:43.016Z,20.42
2022-09-01T16:04:19.114Z,20.65
2022-09-01T16:06:47.140Z,20.77
2022-09-01T16:09:13.645Z,20.72
2022-09-01T16:11:41.243Z,20.96
2022-09-01T16:14:09.195Z,20.91
2022-09-01T16:17:07.846Z,20.94
2022-09-01T16:19:43.113Z,20.94
2022-09-01T16:22:36.898Z,21.31
2022-09-01T16:25:31.527Z,21.35
2022-09-01T16:28:03.050Z,21.39
2022-09-01T16:30:29.695Z,21.57
2022-09-01T16:33:03.878Z,21.81
2022-09-01T16:35:47.924Z,21.76
2022-09-01T16:38:31.097Z,22.02
2022-09-01T16:41:09.712Z,22.04
2022-09-01T16:43:56.306Z,22.02
2022-09-01T16:46:46.942Z,22.10
2022-09-01T16:49:44.084Z,22.21
2022-09-01T16:52:25.314Z,22.35
2022-09-01T16:55:36.943Z,22.33
2022-09-01T16:58:25.323Z,22.74
2022-09-01T17:01:01.979Z,22.75
2022-09-01T17:03:42.843Z,22.88
2022-09-01T17:06:27.722Z,23.10
2022-09-01T17:09:05.901Z,23.13
2022-09-01T17:11:49.081Z,23.38
2022-09-01T17:14:27.607Z,23.19
2022-09-01T17:17:14.256Z,23.50
2022-09-01T17:19:41.754Z,23.46
2022-09-01T17:22:12.344Z,23.62
2022-09-01T17:25:07.794Z,23.67
2022-09-01T17:27:54.224Z,23.82
2022-09-01T17:30:21.136Z,23.84
2022-09-01T17:32:48.587Z,24.04
2022-09-01T17:35:37.155Z,24.17
2022-09-01T17:38:27.986Z,24.32
2022-09-01T17:41:19.261Z,24.32
2022-09-01T17:44:12.665Z,24.49
2022-09-01T17:47:07.044Z,24.61
2022-09-01T17:49:57.030Z,24.73
2022-09-01T17:52:40.034Z,24.76
2022-09-01T17:55:09.543Z,24.96
2022-09-01T17:57:42.813Z,25.04
2022-09-01T18:00:25.794Z,25.33
2022-09-01T18:03:04.661Z,25.32
2022-09-01T18:06:08.909Z,25.61
2022-09-01T18:08:38.541Z,25.54
2022-09-01T18:11:11.390Z,25.82
2022-09-01T18:13:59.802Z,25.87
2022-09-01T18:16:30.744Z,26.00
2022-09-01T18:19:08.878Z,26.37
2022-09-01T18:21:46.255Z,26.26
2022-09-01T18:24:26.300Z,26.46
2022-09-01T18:26:53.016Z,26.58
2022-09-01T18:29:20.488Z,26.54
2022-09-01T18:32:09.227Z,26.74
2022-09-01T18:35:11.713Z,26.91
2022-09-01T18:38:12.366Z,26.81
2022-09-01T18:41:00.059Z,26.60
2022-09-01T18:43:34.661Z,26.99
2022-09-01T18:46:27.048Z,27.11
2022-09-01T18:49:15.547Z,27.20
2022-09-01T18:51:56.553Z,27.23
2022-09-01T18:55:07.869Z,27.57
2022-09-01T18:57:40.071Z,27.47
2022-09-01T19:00:18.652Z,27.78
2022-09-01T19:02:53.863Z,27.74
2022-09-01T19:05:33.662Z,27.78
2022-09-01T19:08:21.957Z,27.75
2022-09-01T19:11:23.478Z,28.18
2022-09-01T19:14:12.867Z,28.23
2022-09-01T19:16:52.201Z,28.24
2022-09-01T19:19:49.501Z,28.35
2022-09-01T19:22:21.023Z,28.31
2022-09-01T19:24:53.527Z,28.75
2022-09-01T19:27:26.283Z,28.67
2022-09-01T19:29:57.693Z,28.93
2022-09-01T19:32:28.817Z,28.84
2022-09-01T19:35:10.615Z,29.01
2022-09-01T19:37:39.012Z,29.13
2022-09-01T19:40:07.397Z,28.94
2022-09-01T19:42:45.954Z,28.99
2022-09-01T19:45:56.091Z,29.38
2022-09-01T19:48:43.095Z,29.31
2022-09-01T19:51:17.576Z,29.27
2022-09-01T19:53:58.544Z,29.55
2022-09-01T19:56:29.787Z,29.21
2022-09-01T19:59:01.322Z,29.56
2022-09-01T20:01:40.801Z,29.35
2022-09-01T20:04:21.266Z,29.75
2022-09-01T20:06:55.244Z,30.05
2022-09-01T20:09:34.737Z,29.57
2022-09-01T20:12:40.090Z,29.79
2022-09-01T20:15:30.743Z,29.83
2022-09-01T20:18:00.106Z,29.62
2022-09-01T20:20:32.722Z,29.79
2022-09-01T20:23:26.891Z,29.82
2022-09-01T20:26:01.247Z,29.78
2022-09-01T20:28:54.683Z,29.75
2022-09-01T20:31:30.233Z,29.75
2022-09-01T20:34:22.015Z,30.07
2022-09-01T20:36:53.359Z,30.01
2022-09-01T20:39:49.135Z,30.38
2022-09-01T20:42:23.578Z,30.18
2022-09-01T20:45:00.028Z,30.47
2022-09-01T20:47:30.255Z,30.21
2022-09-01T20:50:01.104Z,30.49
2022-09-01T20:52:55.493Z,30.68
2022-09-01T20:55:51.997Z,30.26
2022-09-01T20:58:34.934Z,30.82
2022-09-01T21:01:29.579Z,30.41
2022-09-01T21:04:25.763Z,30.69
2022-09-01T21:07:14.365Z,30.55
2022-09-01T21:10:05.410Z,30.58
2022-09-01T21:12:39.996Z,30.56
2022-09-01T21:15:23.951Z,30.99
2022-09-01T21:18:27.756Z,31.07
2022-09-01T21:21:07.100Z,31.08
2022-09-01T21:23:38.235Z,30.89
2022-09-01T21:26:05.585Z,31.06
2022-09-01T21:28:33.922Z,31.38
2022-09-01T21:31:02.066Z,31.47
2022-09-01T21:33:36.102Z,31.32
2022-09-01T21:36:02.945Z,31.36
2022-09-01T21:38:29.535Z,31.52
2022-09-01T21:40:58.615Z,31.76
2022-09-01T21:43:33.230Z,31.75
2022-09-01T21:46:00.912Z,31.55
2022-09-01T21:48:27.818Z,31.72
2022-09-01T21:50:54.294Z,31.76
2022-09-01T21:53:21.493Z,31.90
2022-09-01T21:55:56.166Z,31.85
2022-09-01T21:58:22.659Z,32.12
2022-09-01T22:00:49.249Z,32.01
2022-09-01T22:03:20.226Z,32.03
2022-09-01T22:05:46.806Z,32.37
2022-09-01T22:08:17.258Z,32.27
2022-09-01T22:10:46.463Z,32.49
2022-09-01T22:13:20.036Z,32.29
2022-09-01T22:15:49.520Z,32.26
2022-09-01T22:18:18.145Z,32.55
2022-09-01T22:20:45.734Z,32.46
2022-09-01T22:23:28.218Z,32.70
2022-09-01T22:25:54.957Z,32.42
2022-09-01T22:28:21.754Z,32.68
2022-09-01T22:30:50.789Z,32.55
2022-09-01T22:33:23.199Z,32.87
2022-09-01T22:35:53.707Z,32.90
2022-09-01T22:38:21.358Z,33.29
2022-09-01T22:40:51.697Z,32.83
2022-09-01T22:43:19.448Z,33.15
2022-09-01T22:45:47.963Z,33.40
2022-09-01T22:48:15.723Z,33.23
2022-09-01T22:50:44.375Z,33.19
2022-09-01T22:55:52.770Z,33.26
2022-09-01T22:58:19.651Z,33.56
2022-09-01T23:00:50.574Z,33.25
2022-09-01T23:03:22.871Z,33.76
2022-09-01T23:06:01.013Z,33.42
2022-09-01T23:08:27.493Z,33.59
2022-09-01T23:10:53.998Z,33.46
2022-09-01T23:13:28.271Z,34.10
2022-09-01T23:15:57.677Z,33.74
2022-09-01T23:18:25.613Z,33.80
2022-09-01T23:20:52.144Z,34.18
2022-09-01T23:23:23.552Z,33.91
2022-09-01T23:25:53.415Z,34.26
2022-09-01T23:28:20.888Z,34.14
2022-09-01T23:30:49.935Z,34.33
2022-09-01T23:33:22.901Z,34.23
2022-09-01T23:35:52.875Z,34.17
2022-09-01T23:38:22.143Z,34.16
2022-09-01T23:40:51.314Z,34.08
2022-09-01T23:43:21.298Z,34.29
2022-09-01T23:45:56.430Z,34.75
2022-09-01T23:48:24.286Z,34.44
2022-09-01T23:50:55.921Z,34.55
2022-09-01T23:53:34.976Z,34.51
2022-09-01T23:56:03.869Z,34.55
2022-09-01T23:58:32.086Z,34.68
